sensor_id;sensor_type;location;lat;lon;timestamp;P1;durP1;ratioP1;P2;durP2;ratioP2
49041;SDS011;34859;51.608;11.462;2022-07-29T00:01:16;4.03;;;1.00;;
49041;SDS011;34859;51.608;11.462;2022-07-29T00:04:00;2.88;;;1.20;;
49041;SDS011;34859;51.608;11.462;2022-07-29T00:06:44;2.90;;;1.20;;
49041;SDS011;34859;51.608;11.462;2022-07-29T00:09:28;1.15;;;0.95;;
49041;SDS011;34859;51.608;11.462;2022-07-29T00:12:10;3.10;;;0.95;;
49041;SDS011;34859;51.608;11.462;2022-07-29T00:14:54;4.75;;;1.00;;
49041;SDS011;34859;51.608;11.462;2022-07-29T00:17:39;1.90;;;1.20;;
49041;SDS011;34859;51.608;11.462;2022-07-29T00:20:23;3.57;;;1.17;;
49041;SDS011;34859;51.608;11.462;2022-07-29T00:23:07;1.48;;;1.15;;
49041;SDS011;34859;51.608;11.462;2022-07-29T00:25:51;1.95;;;1.17;;
49041;SDS011;34859;51.608;11.462;2022-07-29T00:28:32;3.70;;;1.23;;
49041;SDS011;34859;51.608;11.462;2022-07-29T00:31:16;3.20;;;1.40;;
49041;SDS011;34859;51.608;11.462;2022-07-29T00:34:00;3.60;;;1.48;;
49041;SDS011;34859;51.608;11.462;2022-07-29T00:36:44;5.95;;;1.30;;
49041;SDS011;34859;51.608;11.462;2022-07-29T00:39:29;1.58;;;1.00;;
49041;SDS011;34859;51.608;11.462;2022-07-29T00:42:13;2.75;;;1.05;;
49041;SDS011;34859;51.608;11.462;2022-07-29T00:44:57;1.58;;;0.98;;
49041;SDS011;34859;51.608;11.462;2022-07-29T00:47:41;3.65;;;1.17;;
49041;SDS011;34859;51.608;11.462;2022-07-29T00:50:26;3.63;;;1.15;;
49041;SDS011;34859;51.608;11.462;2022-07-29T00:53:10;4.03;;;1.17;;
49041;SDS011;34859;51.608;11.462;2022-07-29T00:55:56;3.22;;;1.10;;
49041;SDS011;34859;51.608;11.462;2022-07-29T01:01:22;7.30;;;1.35;;
49041;SDS011;34859;51.608;11.462;2022-07-29T01:04:05;5.18;;;1.13;;
49041;SDS011;34859;51.608;11.462;2022-07-29T01:06:50;4.78;;;1.42;;
49041;SDS011;34859;51.608;11.462;2022-07-29T01:09:32;4.03;;;1.50;;
49041;SDS011;34859;51.608;11.462;2022-07-29T01:12:19;2.45;;;1.42;;
49041;SDS011;34859;51.608;11.462;2022-07-29T01:15:05;2.53;;;1.20;;
49041;SDS011;34859;51.608;11.462;2022-07-29T01:18:01;2.78;;;1.10;;
49041;SDS011;34859;51.608;11.462;2022-07-29T01:23:59;2.40;;;1.10;;
49041;SDS011;34859;51.608;11.462;2022-07-29T01:29:41;3.28;;;1.35;;
49041;SDS011;34859;51.608;11.462;2022-07-29T01:32:35;2.67;;;1.00;;
49041;SDS011;34859;51.608;11.462;2022-07-29T01:35:25;4.18;;;1.30;;
49041;SDS011;34859;51.608;11.462;2022-07-29T01:38:13;3.97;;;1.10;;
49041;SDS011;34859;51.608;11.462;2022-07-29T01:41:13;3.28;;;1.27;;
49041;SDS011;34859;51.608;11.462;2022-07-29T01:43:58;1.48;;;1.38;;
49041;SDS011;34859;51.608;11.462;2022-07-29T01:46:50;2.80;;;1.17;;
49041;SDS011;34859;51.608;11.462;2022-07-29T01:49:41;3.33;;;1.30;;
49041;SDS011;34859;51.608;11.462;2022-07-29T01:52:34;1.70;;;1.10;;
49041;SDS011;34859;51.608;11.462;2022-07-29T01:55:20;2.05;;;1.10;;
49041;SDS011;34859;51.608;11.462;2022-07-29T01:58:08;1.80;;;0.93;;
49041;SDS011;34859;51.608;11.462;2022-07-29T02:00:55;3.65;;;1.10;;
49041;SDS011;34859;51.608;11.462;2022-07-29T02:03:43;2.63;;;1.13;;
49041;SDS011;34859;51.608;11.462;2022-07-29T02:06:25;3.80;;;1.00;;
49041;SDS011;34859;51.608;11.462;2022-07-29T02:09:11;1.48;;;1.20;;
49041;SDS011;34859;51.608;11.462;2022-07-29T02:11:57;3.20;;;1.30;;
49041;SDS011;34859;51.608;11.462;2022-07-29T02:14:45;2.95;;;1.08;;
49041;SDS011;34859;51.608;11.462;2022-07-29T02:17:43;3.00;;;1.20;;
49041;SDS011;34859;51.608;11.462;2022-07-29T02:20:32;2.33;;;1.40;;
49041;SDS011;34859;51.608;11.462;2022-07-29T02:23:18;1.60;;;1.20;;
49041;SDS011;34859;51.608;11.462;2022-07-29T02:26:05;5.35;;;1.38;;
49041;SDS011;34859;51.608;11.462;2022-07-29T02:28:51;3.53;;;1.38;;
49041;SDS011;34859;51.608;11.462;2022-07-29T02:31:37;2.47;;;1.02;;
49041;SDS011;34859;51.608;11.462;2022-07-29T02:34:23;5.70;;;1.60;;
49041;SDS011;34859;51.608;11.462;2022-07-29T02:37:09;6.22;;;1.23;;
49041;SDS011;34859;51.608;11.462;2022-07-29T02:39:55;1.65;;;1.23;;
49041;SDS011;34859;51.608;11.462;2022-07-29T02:42:41;4.35;;;1.10;;
49041;SDS011;34859;51.608;11.462;2022-07-29T02:45:27;2.03;;;1.27;;
49041;SDS011;34859;51.608;11.462;2022-07-29T02:48:10;1.77;;;1.23;;
49041;SDS011;34859;51.608;11.462;2022-07-29T02:51:01;2.35;;;1.10;;
49041;SDS011;34859;51.608;11.462;2022-07-29T02:53:51;2.08;;;1.50;;
49041;SDS011;34859;51.608;11.462;2022-07-29T02:56:37;2.28;;;1.00;;
49041;SDS011;34859;51.608;11.462;2022-07-29T02:59:25;4.35;;;1.38;;
49041;SDS011;34859;51.608;11.462;2022-07-29T03:02:08;3.78;;;0.90;;
49041;SDS011;34859;51.608;11.462;2022-07-29T03:04:52;4.88;;;0.90;;
49041;SDS011;34859;51.608;11.462;2022-07-29T03:07:38;3.80;;;1.25;;
49041;SDS011;34859;51.608;11.462;2022-07-29T03:10:27;10.57;;;1.75;;
49041;SDS011;34859;51.608;11.462;2022-07-29T03:13:09;5.47;;;1.17;;
49041;SDS011;34859;51.608;11.462;2022-07-29T03:15:56;2.55;;;1.20;;
49041;SDS011;34859;51.608;11.462;2022-07-29T03:18:38;2.38;;;1.17;;
49041;SDS011;34859;51.608;11.462;2022-07-29T03:21:22;7.20;;;1.38;;
49041;SDS011;34859;51.608;11.462;2022-07-29T03:24:06;1.50;;;1.17;;
49041;SDS011;34859;51.608;11.462;2022-07-29T03:26:51;1.70;;;1.23;;
49041;SDS011;34859;51.608;11.462;2022-07-29T03:29:35;1.73;;;0.93;;
49041;SDS011;34859;51.608;11.462;2022-07-29T03:32:19;1.42;;;1.33;;
49041;SDS011;34859;51.608;11.462;2022-07-29T03:35:03;3.03;;;1.20;;
49041;SDS011;34859;51.608;11.462;2022-07-29T03:37:49;3.17;;;1.63;;
49041;SDS011;34859;51.608;11.462;2022-07-29T03:40:33;5.20;;;1.15;;
49041;SDS011;34859;51.608;11.462;2022-07-29T03:43:24;3.05;;;1.65;;
49041;SDS011;34859;51.608;11.462;2022-07-29T03:46:13;1.40;;;0.90;;
49041;SDS011;34859;51.608;11.462;2022-07-29T03:49:01;2.80;;;1.40;;
49041;SDS011;34859;51.608;11.462;2022-07-29T03:51:47;3.33;;;1.05;;
49041;SDS011;34859;51.608;11.462;2022-07-29T03:54:31;1.75;;;1.17;;
49041;SDS011;34859;51.608;11.462;2022-07-29T03:57:16;4.28;;;1.13;;
49041;SDS011;34859;51.608;11.462;2022-07-29T04:00:03;3.88;;;1.20;;
49041;SDS011;34859;51.608;11.462;2022-07-29T04:02:48;2.22;;;1.27;;
49041;SDS011;34859;51.608;11.462;2022-07-29T04:05:32;2.08;;;1.17;;
49041;SDS011;34859;51.608;11.462;2022-07-29T04:08:14;1.20;;;0.90;;
49041;SDS011;34859;51.608;11.462;2022-07-29T04:10:58;2.50;;;1.58;;
49041;SDS011;34859;51.608;11.462;2022-07-29T04:13:43;1.95;;;1.50;;
49041;SDS011;34859;51.608;11.462;2022-07-29T04:16:24;2.00;;;0.90;;
49041;SDS011;34859;51.608;11.462;2022-07-29T04:19:08;3.35;;;1.20;;
49041;SDS011;34859;51.608;11.462;2022-07-29T04:21:53;3.08;;;1.30;;
49041;SDS011;34859;51.608;11.462;2022-07-29T04:24:37;3.72;;;1.30;;
49041;SDS011;34859;51.608;11.462;2022-07-29T04:27:21;3.35;;;1.40;;
49041;SDS011;34859;51.608;11.462;2022-07-29T04:30:05;4.47;;;1.48;;
49041;SDS011;34859;51.608;11.462;2022-07-29T04:32:49;1.83;;;1.48;;
49041;SDS011;34859;51.608;11.462;2022-07-29T04:35:34;2.30;;;1.30;;
49041;SDS011;34859;51.608;11.462;2022-07-29T04:38:22;1.80;;;0.95;;
49041;SDS011;34859;51.608;11.462;2022-07-29T04:41:06;2.45;;;1.65;;
49041;SDS011;34859;51.608;11.462;2022-07-29T04:46:35;3.95;;;1.35;;
49041;SDS011;34859;51.608;11.462;2022-07-29T04:49:19;1.50;;;1.27;;
49041;SDS011;34859;51.608;11.462;2022-07-29T04:52:01;3.40;;;1.45;;
49041;SDS011;34859;51.608;11.462;2022-07-29T04:54:45;2.88;;;1.48;;
49041;SDS011;34859;51.608;11.462;2022-07-29T04:57:29;2.20;;;1.33;;
49041;SDS011;34859;51.608;11.462;2022-07-29T05:00:14;3.75;;;1.25;;
49041;SDS011;34859;51.608;11.462;2022-07-29T05:02:58;1.40;;;1.30;;
49041;SDS011;34859;51.608;11.462;2022-07-29T05:05:42;3.63;;;1.20;;
49041;SDS011;34859;51.608;11.462;2022-07-29T05:08:23;5.95;;;1.50;;
49041;SDS011;34859;51.608;11.462;2022-07-29T05:11:07;2.83;;;1.83;;
49041;SDS011;34859;51.608;11.462;2022-07-29T05:13:49;3.05;;;1.65;;
49041;SDS011;34859;51.608;11.462;2022-07-29T05:16:30;2.60;;;1.20;;
49041;SDS011;34859;51.608;11.462;2022-07-29T05:19:11;3.03;;;1.30;;
49041;SDS011;34859;51.608;11.462;2022-07-29T05:21:55;1.10;;;0.98;;
49041;SDS011;34859;51.608;11.462;2022-07-29T05:24:36;2.50;;;1.40;;
49041;SDS011;34859;51.608;11.462;2022-07-29T05:27:21;1.98;;;1.52;;
49041;SDS011;34859;51.608;11.462;2022-07-29T05:30:05;8.45;;;1.67;;
49041;SDS011;34859;51.608;11.462;2022-07-29T05:32:50;2.25;;;1.33;;
49041;SDS011;34859;51.608;11.462;2022-07-29T05:35:34;3.17;;;1.17;;
49041;SDS011;34859;51.608;11.462;2022-07-29T05:38:20;5.47;;;1.55;;
49041;SDS011;34859;51.608;11.462;2022-07-29T05:41:04;2.58;;;1.42;;
49041;SDS011;34859;51.608;11.462;2022-07-29T05:43:48;1.60;;;1.27;;
49041;SDS011;34859;51.608;11.462;2022-07-29T05:46:32;1.33;;;1.20;;
49041;SDS011;34859;51.608;11.462;2022-07-29T05:49:16;1.67;;;1.35;;
49041;SDS011;34859;51.608;11.462;2022-07-29T05:51:57;1.75;;;1.20;;
49041;SDS011;34859;51.608;11.462;2022-07-29T05:54:39;2.72;;;1.40;;
49041;SDS011;34859;51.608;11.462;2022-07-29T05:57:23;2.20;;;1.20;;
49041;SDS011;34859;51.608;11.462;2022-07-29T06:02:53;2.65;;;1.15;;
49041;SDS011;34859;51.608;11.462;2022-07-29T06:05:37;3.72;;;1.15;;
49041;SDS011;34859;51.608;11.462;2022-07-29T06:08:21;4.07;;;1.47;;
49041;SDS011;34859;51.608;11.462;2022-07-29T06:11:05;4.38;;;1.60;;
49041;SDS011;34859;51.608;11.462;2022-07-29T06:13:51;6.97;;;1.60;;
49041;SDS011;34859;51.608;11.462;2022-07-29T06:16:35;1.70;;;1.15;;
49041;SDS011;34859;51.608;11.462;2022-07-29T06:19:19;1.80;;;1.48;;
49041;SDS011;34859;51.608;11.462;2022-07-29T06:22:03;3.42;;;1.20;;
49041;SDS011;34859;51.608;11.462;2022-07-29T06:24:47;1.60;;;1.08;;
49041;SDS011;34859;51.608;11.462;2022-07-29T06:27:31;1.30;;;1.20;;
49041;SDS011;34859;51.608;11.462;2022-07-29T06:30:15;3.97;;;1.00;;
49041;SDS011;34859;51.608;11.462;2022-07-29T06:32:59;3.13;;;1.27;;
49041;SDS011;34859;51.608;11.462;2022-07-29T06:35:42;4.25;;;1.10;;
49041;SDS011;34859;51.608;11.462;2022-07-29T06:38:27;2.72;;;1.42;;
49041;SDS011;34859;51.608;11.462;2022-07-29T06:41:08;3.95;;;1.83;;
49041;SDS011;34859;51.608;11.462;2022-07-29T06:43:56;1.35;;;1.05;;
49041;SDS011;34859;51.608;11.462;2022-07-29T06:46:40;4.82;;;1.45;;
49041;SDS011;34859;51.608;11.462;2022-07-29T06:52:09;5.05;;;1.45;;
49041;SDS011;34859;51.608;11.462;2022-07-29T06:54:54;5.75;;;1.90;;
49041;SDS011;34859;51.608;11.462;2022-07-29T06:57:38;4.00;;;1.98;;
49041;SDS011;34859;51.608;11.462;2022-07-29T07:00:22;6.87;;;1.20;;
49041;SDS011;34859;51.608;11.462;2022-07-29T07:03:06;8.23;;;1.83;;
49041;SDS011;34859;51.608;11.462;2022-07-29T07:05:51;4.25;;;1.88;;
49041;SDS011;34859;51.608;11.462;2022-07-29T07:08:37;4.25;;;1.40;;
49041;SDS011;34859;51.608;11.462;2022-07-29T07:11:21;11.27;;;1.48;;
49041;SDS011;34859;51.608;11.462;2022-07-29T07:14:05;3.15;;;1.33;;
49041;SDS011;34859;51.608;11.462;2022-07-29T07:16:49;7.00;;;1.87;;
49041;SDS011;34859;51.608;11.462;2022-07-29T07:19:33;6.47;;;1.88;;
49041;SDS011;34859;51.608;11.462;2022-07-29T07:22:17;1.75;;;1.30;;
49041;SDS011;34859;51.608;11.462;2022-07-29T07:25:01;2.75;;;1.70;;
49041;SDS011;34859;51.608;11.462;2022-07-29T07:27:46;5.93;;;2.78;;
49041;SDS011;34859;51.608;11.462;2022-07-29T07:30:30;9.63;;;2.20;;
49041;SDS011;34859;51.608;11.462;2022-07-29T07:33:15;9.25;;;1.98;;
49041;SDS011;34859;51.608;11.462;2022-07-29T07:35:56;6.63;;;2.00;;
49041;SDS011;34859;51.608;11.462;2022-07-29T07:38:40;3.55;;;1.58;;
49041;SDS011;34859;51.608;11.462;2022-07-29T07:41:23;4.80;;;1.80;;
49041;SDS011;34859;51.608;11.462;2022-07-29T07:44:08;3.13;;;1.88;;
49041;SDS011;34859;51.608;11.462;2022-07-29T07:46:51;5.22;;;1.75;;
49041;SDS011;34859;51.608;11.462;2022-07-29T07:49:35;5.20;;;1.55;;
49041;SDS011;34859;51.608;11.462;2022-07-29T07:52:20;5.55;;;1.77;;
49041;SDS011;34859;51.608;11.462;2022-07-29T07:55:02;4.00;;;2.00;;
49041;SDS011;34859;51.608;11.462;2022-07-29T07:57:47;3.33;;;2.30;;
49041;SDS011;34859;51.608;11.462;2022-07-29T08:00:31;5.03;;;1.30;;
49041;SDS011;34859;51.608;11.462;2022-07-29T08:03:16;6.63;;;1.83;;
49041;SDS011;34859;51.608;11.462;2022-07-29T08:06:00;3.63;;;1.90;;
49041;SDS011;34859;51.608;11.462;2022-07-29T08:08:45;4.40;;;1.63;;
49041;SDS011;34859;51.608;11.462;2022-07-29T08:11:26;3.97;;;2.00;;
49041;SDS011;34859;51.608;11.462;2022-07-29T08:14:10;3.25;;;1.67;;
49041;SDS011;34859;51.608;11.462;2022-07-29T08:16:51;4.20;;;1.52;;
49041;SDS011;34859;51.608;11.462;2022-07-29T08:19:35;7.22;;;1.75;;
49041;SDS011;34859;51.608;11.462;2022-07-29T08:22:20;4.47;;;1.75;;
49041;SDS011;34859;51.608;11.462;2022-07-29T08:25:02;3.33;;;1.88;;
49041;SDS011;34859;51.608;11.462;2022-07-29T08:27:47;4.18;;;1.90;;
49041;SDS011;34859;51.608;11.462;2022-07-29T08:30:31;7.33;;;2.13;;
49041;SDS011;34859;51.608;11.462;2022-07-29T08:33:15;12.25;;;2.25;;
49041;SDS011;34859;51.608;11.462;2022-07-29T08:35:59;9.57;;;2.10;;
49041;SDS011;34859;51.608;11.462;2022-07-29T08:38:43;5.10;;;1.80;;
49041;SDS011;34859;51.608;11.462;2022-07-29T08:41:27;5.57;;;2.23;;
49041;SDS011;34859;51.608;11.462;2022-07-29T08:44:13;3.63;;;1.60;;
49041;SDS011;34859;51.608;11.462;2022-07-29T08:46:59;4.45;;;1.92;;
49041;SDS011;34859;51.608;11.462;2022-07-29T08:49:43;7.60;;;2.00;;
49041;SDS011;34859;51.608;11.462;2022-07-29T08:52:27;7.28;;;2.28;;
49041;SDS011;34859;51.608;11.462;2022-07-29T08:55:16;5.90;;;1.80;;
49041;SDS011;34859;51.608;11.462;2022-07-29T08:58:01;10.48;;;2.90;;
49041;SDS011;34859;51.608;11.462;2022-07-29T09:00:46;3.63;;;1.57;;
49041;SDS011;34859;51.608;11.462;2022-07-29T09:03:36;6.53;;;1.90;;
49041;SDS011;34859;51.608;11.462;2022-07-29T09:06:22;6.38;;;2.20;;
49041;SDS011;34859;51.608;11.462;2022-07-29T09:09:11;7.18;;;2.58;;
49041;SDS011;34859;51.608;11.462;2022-07-29T09:11:57;5.38;;;1.92;;
49041;SDS011;34859;51.608;11.462;2022-07-29T09:14:43;5.57;;;2.10;;
49041;SDS011;34859;51.608;11.462;2022-07-29T09:17:40;4.60;;;2.05;;
49041;SDS011;34859;51.608;11.462;2022-07-29T09:20:25;6.85;;;2.63;;
49041;SDS011;34859;51.608;11.462;2022-07-29T09:23:27;10.45;;;2.55;;
49041;SDS011;34859;51.608;11.462;2022-07-29T09:26:11;8.02;;;2.30;;
49041;SDS011;34859;51.608;11.462;2022-07-29T09:28:55;4.63;;;2.30;;
49041;SDS011;34859;51.608;11.462;2022-07-29T09:31:40;8.10;;;3.10;;
49041;SDS011;34859;51.608;11.462;2022-07-29T09:34:27;19.15;;;3.03;;
49041;SDS011;34859;51.608;11.462;2022-07-29T09:37:10;8.02;;;2.42;;
49041;SDS011;34859;51.608;11.462;2022-07-29T09:39:55;7.03;;;2.65;;
49041;SDS011;34859;51.608;11.462;2022-07-29T09:42:36;9.88;;;2.88;;
49041;SDS011;34859;51.608;11.462;2022-07-29T09:45:27;13.23;;;2.75;;
49041;SDS011;34859;51.608;11.462;2022-07-29T09:48:19;10.98;;;3.40;;
49041;SDS011;34859;51.608;11.462;2022-07-29T09:51:18;11.43;;;3.20;;
49041;SDS011;34859;51.608;11.462;2022-07-29T09:53:59;6.50;;;3.00;;
49041;SDS011;34859;51.608;11.462;2022-07-29T09:56:46;17.27;;;3.55;;
49041;SDS011;34859;51.608;11.462;2022-07-29T09:59:31;5.13;;;3.25;;
49041;SDS011;34859;51.608;11.462;2022-07-29T10:02:16;7.60;;;3.58;;
49041;SDS011;34859;51.608;11.462;2022-07-29T10:05:02;7.60;;;3.28;;
49041;SDS011;34859;51.608;11.462;2022-07-29T10:07:49;10.80;;;3.80;;
49041;SDS011;34859;51.608;11.462;2022-07-29T10:10:34;14.65;;;4.10;;
49041;SDS011;34859;51.608;11.462;2022-07-29T10:13:20;9.18;;;4.03;;
49041;SDS011;34859;51.608;11.462;2022-07-29T10:16:04;10.83;;;3.67;;
49041;SDS011;34859;51.608;11.462;2022-07-29T10:18:49;9.60;;;3.80;;
49041;SDS011;34859;51.608;11.462;2022-07-29T10:21:34;9.75;;;3.60;;
49041;SDS011;34859;51.608;11.462;2022-07-29T10:24:21;7.70;;;3.25;;
49041;SDS011;34859;51.608;11.462;2022-07-29T10:27:07;5.80;;;3.88;;
49041;SDS011;34859;51.608;11.462;2022-07-29T10:29:53;5.05;;;3.47;;
49041;SDS011;34859;51.608;11.462;2022-07-29T10:35:31;6.75;;;3.67;;
49041;SDS011;34859;51.608;11.462;2022-07-29T10:44:19;11.82;;;3.53;;
49041;SDS011;34859;51.608;11.462;2022-07-29T10:47:06;4.82;;;3.05;;
49041;SDS011;34859;51.608;11.462;2022-07-29T10:49:54;5.53;;;3.58;;
49041;SDS011;34859;51.608;11.462;2022-07-29T10:55:37;7.38;;;3.85;;
49041;SDS011;34859;51.608;11.462;2022-07-29T10:58:26;4.00;;;3.42;;
49041;SDS011;34859;51.608;11.462;2022-07-29T11:01:28;5.32;;;2.90;;
49041;SDS011;34859;51.608;11.462;2022-07-29T11:04:13;4.63;;;2.60;;
49041;SDS011;34859;51.608;11.462;2022-07-29T11:09:43;8.45;;;3.25;;
49041;SDS011;34859;51.608;11.462;2022-07-29T11:15:22;6.95;;;2.78;;
49041;SDS011;34859;51.608;11.462;2022-07-29T11:18:07;6.72;;;2.88;;
49041;SDS011;34859;51.608;11.462;2022-07-29T11:20:52;8.48;;;3.05;;
49041;SDS011;34859;51.608;11.462;2022-07-29T11:23:36;12.13;;;3.20;;
49041;SDS011;34859;51.608;11.462;2022-07-29T11:26:23;5.10;;;2.95;;
49041;SDS011;34859;51.608;11.462;2022-07-29T11:29:26;6.53;;;2.80;;
49041;SDS011;34859;51.608;11.462;2022-07-29T11:32:12;3.55;;;2.67;;
49041;SDS011;34859;51.608;11.462;2022-07-29T11:44:08;4.47;;;3.05;;
49041;SDS011;34859;51.608;11.462;2022-07-29T11:46:53;4.13;;;2.20;;
49041;SDS011;34859;51.608;11.462;2022-07-29T11:49:37;2.75;;;2.55;;
49041;SDS011;34859;51.608;11.462;2022-07-29T11:52:47;4.03;;;2.72;;
49041;SDS011;34859;51.608;11.462;2022-07-29T11:55:31;6.22;;;2.60;;
49041;SDS011;34859;51.608;11.462;2022-07-29T11:58:22;5.43;;;2.83;;
49041;SDS011;34859;51.608;11.462;2022-07-29T12:01:06;4.40;;;2.67;;
49041;SDS011;34859;51.608;11.462;2022-07-29T12:04:01;2.58;;;2.10;;
49041;SDS011;34859;51.608;11.462;2022-07-29T12:06:50;5.28;;;3.20;;
49041;SDS011;34859;51.608;11.462;2022-07-29T12:09:35;4.70;;;2.60;;
49041;SDS011;34859;51.608;11.462;2022-07-29T12:15:17;6.23;;;2.17;;
49041;SDS011;34859;51.608;11.462;2022-07-29T12:18:14;4.57;;;2.50;;
49041;SDS011;34859;51.608;11.462;2022-07-29T12:20:57;4.22;;;2.45;;
49041;SDS011;34859;51.608;11.462;2022-07-29T12:23:51;4.97;;;2.28;;
49041;SDS011;34859;51.608;11.462;2022-07-29T12:26:48;4.72;;;2.25;;
49041;SDS011;34859;51.608;11.462;2022-07-29T12:29:37;4.53;;;2.13;;
49041;SDS011;34859;51.608;11.462;2022-07-29T12:32:21;3.42;;;2.30;;
49041;SDS011;34859;51.608;11.462;2022-07-29T12:35:07;7.65;;;2.67;;
49041;SDS011;34859;51.608;11.462;2022-07-29T12:37:52;4.10;;;2.53;;
49041;SDS011;34859;51.608;11.462;2022-07-29T12:40:38;10.77;;;2.25;;
49041;SDS011;34859;51.608;11.462;2022-07-29T12:43:23;5.18;;;2.58;;
49041;SDS011;34859;51.608;11.462;2022-07-29T12:46:13;5.80;;;2.28;;
49041;SDS011;34859;51.608;11.462;2022-07-29T12:48:58;4.95;;;2.33;;
49041;SDS011;34859;51.608;11.462;2022-07-29T12:51:39;7.47;;;2.58;;
49041;SDS011;34859;51.608;11.462;2022-07-29T12:54:24;4.38;;;1.90;;
49041;SDS011;34859;51.608;11.462;2022-07-29T12:57:08;6.75;;;2.40;;
49041;SDS011;34859;51.608;11.462;2022-07-29T13:00:08;5.57;;;2.35;;
49041;SDS011;34859;51.608;11.462;2022-07-29T13:02:59;5.28;;;1.92;;
49041;SDS011;34859;51.608;11.462;2022-07-29T13:05:43;8.70;;;2.65;;
49041;SDS011;34859;51.608;11.462;2022-07-29T13:08:27;3.60;;;2.03;;
49041;SDS011;34859;51.608;11.462;2022-07-29T13:11:26;5.65;;;2.20;;
49041;SDS011;34859;51.608;11.462;2022-07-29T13:17:40;3.20;;;1.98;;
49041;SDS011;34859;51.608;11.462;2022-07-29T13:20:23;4.88;;;1.90;;
49041;SDS011;34859;51.608;11.462;2022-07-29T13:23:09;16.58;;;2.75;;
49041;SDS011;34859;51.608;11.462;2022-07-29T13:25:50;5.20;;;2.45;;
49041;SDS011;34859;51.608;11.462;2022-07-29T13:31:18;4.15;;;2.03;;
49041;SDS011;34859;51.608;11.462;2022-07-29T13:34:02;3.10;;;2.17;;
49041;SDS011;34859;51.608;11.462;2022-07-29T13:36:44;5.05;;;2.13;;
49041;SDS011;34859;51.608;11.462;2022-07-29T13:39:28;3.05;;;1.80;;
49041;SDS011;34859;51.608;11.462;2022-07-29T13:42:12;7.43;;;2.35;;
49041;SDS011;34859;51.608;11.462;2022-07-29T13:44:53;2.85;;;1.88;;
49041;SDS011;34859;51.608;11.462;2022-07-29T13:47:38;2.38;;;1.73;;
49041;SDS011;34859;51.608;11.462;2022-07-29T13:50:22;3.67;;;2.13;;
49041;SDS011;34859;51.608;11.462;2022-07-29T13:53:06;6.28;;;2.08;;
49041;SDS011;34859;51.608;11.462;2022-07-29T13:55:50;3.63;;;1.92;;
49041;SDS011;34859;51.608;11.462;2022-07-29T13:58:35;5.75;;;2.00;;
49041;SDS011;34859;51.608;11.462;2022-07-29T14:01:19;4.45;;;1.70;;
49041;SDS011;34859;51.608;11.462;2022-07-29T14:04:03;3.65;;;1.88;;
49041;SDS011;34859;51.608;11.462;2022-07-29T14:06:47;3.77;;;1.90;;
49041;SDS011;34859;51.608;11.462;2022-07-29T14:09:31;3.28;;;1.83;;
49041;SDS011;34859;51.608;11.462;2022-07-29T14:12:15;3.25;;;1.70;;
49041;SDS011;34859;51.608;11.462;2022-07-29T14:14:56;2.30;;;1.83;;
49041;SDS011;34859;51.608;11.462;2022-07-29T14:17:40;4.47;;;2.03;;
49041;SDS011;34859;51.608;11.462;2022-07-29T14:20:24;2.92;;;1.98;;
49041;SDS011;34859;51.608;11.462;2022-07-29T14:23:08;3.88;;;1.58;;
49041;SDS011;34859;51.608;11.462;2022-07-29T14:25:52;8.55;;;1.70;;
49041;SDS011;34859;51.608;11.462;2022-07-29T14:28:36;4.40;;;1.73;;
49041;SDS011;34859;51.608;11.462;2022-07-29T14:31:20;3.75;;;2.20;;
49041;SDS011;34859;51.608;11.462;2022-07-29T14:34:04;5.45;;;1.75;;
49041;SDS011;34859;51.608;11.462;2022-07-29T14:36:48;3.72;;;2.00;;
49041;SDS011;34859;51.608;11.462;2022-07-29T14:39:33;3.22;;;1.75;;
49041;SDS011;34859;51.608;11.462;2022-07-29T14:42:19;3.08;;;1.70;;
49041;SDS011;34859;51.608;11.462;2022-07-29T14:45:07;6.18;;;1.90;;
49041;SDS011;34859;51.608;11.462;2022-07-29T14:47:52;7.65;;;1.90;;
49041;SDS011;34859;51.608;11.462;2022-07-29T14:50:36;4.45;;;2.22;;
49041;SDS011;34859;51.608;11.462;2022-07-29T14:53:21;3.05;;;1.67;;
49041;SDS011;34859;51.608;11.462;2022-07-29T14:58:49;11.60;;;1.92;;
49041;SDS011;34859;51.608;11.462;2022-07-29T15:01:33;4.93;;;2.15;;
49041;SDS011;34859;51.608;11.462;2022-07-29T15:04:17;2.97;;;1.73;;
49041;SDS011;34859;51.608;11.462;2022-07-29T15:07:01;6.18;;;1.55;;
49041;SDS011;34859;51.608;11.462;2022-07-29T15:12:31;8.80;;;1.92;;
49041;SDS011;34859;51.608;11.462;2022-07-29T15:15:15;4.53;;;1.63;;
49041;SDS011;34859;51.608;11.462;2022-07-29T15:17:59;3.03;;;1.27;;
49041;SDS011;34859;51.608;11.462;2022-07-29T15:20:43;5.45;;;1.92;;
49041;SDS011;34859;51.608;11.462;2022-07-29T15:23:30;4.10;;;1.52;;
49041;SDS011;34859;51.608;11.462;2022-07-29T15:26:14;3.08;;;1.40;;
49041;SDS011;34859;51.608;11.462;2022-07-29T15:28:59;2.42;;;1.30;;
49041;SDS011;34859;51.608;11.462;2022-07-29T15:31:44;4.55;;;1.65;;
49041;SDS011;34859;51.608;11.462;2022-07-29T15:34:28;2.58;;;1.63;;
49041;SDS011;34859;51.608;11.462;2022-07-29T15:37:09;8.20;;;1.70;;
49041;SDS011;34859;51.608;11.462;2022-07-29T15:39:54;3.33;;;1.73;;
49041;SDS011;34859;51.608;11.462;2022-07-29T15:42:39;3.50;;;1.70;;
49041;SDS011;34859;51.608;11.462;2022-07-29T15:45:23;3.55;;;1.40;;
49041;SDS011;34859;51.608;11.462;2022-07-29T15:48:08;3.45;;;1.70;;
49041;SDS011;34859;51.608;11.462;2022-07-29T15:50:52;2.97;;;2.08;;
49041;SDS011;34859;51.608;11.462;2022-07-29T15:53:36;2.10;;;1.60;;
49041;SDS011;34859;51.608;11.462;2022-07-29T15:56:20;1.83;;;1.63;;
49041;SDS011;34859;51.608;11.462;2022-07-29T15:59:05;7.32;;;2.22;;
49041;SDS011;34859;51.608;11.462;2022-07-29T16:01:50;4.20;;;2.00;;
49041;SDS011;34859;51.608;11.462;2022-07-29T16:04:34;9.93;;;1.73;;
49041;SDS011;34859;51.608;11.462;2022-07-29T16:07:18;6.28;;;2.03;;
49041;SDS011;34859;51.608;11.462;2022-07-29T16:10:02;2.40;;;1.70;;
49041;SDS011;34859;51.608;11.462;2022-07-29T16:12:47;2.10;;;1.77;;
49041;SDS011;34859;51.608;11.462;2022-07-29T16:15:31;3.55;;;1.40;;
49041;SDS011;34859;51.608;11.462;2022-07-29T16:18:15;2.97;;;1.70;;
49041;SDS011;34859;51.608;11.462;2022-07-29T16:20:59;2.17;;;1.80;;
49041;SDS011;34859;51.608;11.462;2022-07-29T16:23:43;4.70;;;1.85;;
49041;SDS011;34859;51.608;11.462;2022-07-29T16:29:12;3.78;;;1.50;;
49041;SDS011;34859;51.608;11.462;2022-07-29T16:31:56;1.58;;;1.13;;
49041;SDS011;34859;51.608;11.462;2022-07-29T16:34:40;4.27;;;1.63;;
49041;SDS011;34859;51.608;11.462;2022-07-29T16:37:24;1.90;;;1.70;;
49041;SDS011;34859;51.608;11.462;2022-07-29T16:40:08;2.72;;;1.67;;
49041;SDS011;34859;51.608;11.462;2022-07-29T16:42:52;10.23;;;1.55;;
49041;SDS011;34859;51.608;11.462;2022-07-29T16:45:36;4.88;;;1.55;;
49041;SDS011;34859;51.608;11.462;2022-07-29T16:51:05;6.93;;;1.95;;
49041;SDS011;34859;51.608;11.462;2022-07-29T16:53:50;2.70;;;1.83;;
49041;SDS011;34859;51.608;11.462;2022-07-29T16:56:34;4.53;;;1.58;;
49041;SDS011;34859;51.608;11.462;2022-07-29T16:59:18;4.80;;;1.73;;
49041;SDS011;34859;51.608;11.462;2022-07-29T17:01:59;3.13;;;1.63;;
49041;SDS011;34859;51.608;11.462;2022-07-29T17:04:46;1.77;;;1.45;;
49041;SDS011;34859;51.608;11.462;2022-07-29T17:07:30;2.03;;;1.23;;
49041;SDS011;34859;51.608;11.462;2022-07-29T17:10:14;2.93;;;1.60;;
49041;SDS011;34859;51.608;11.462;2022-07-29T17:12:58;2.50;;;1.45;;
49041;SDS011;34859;51.608;11.462;2022-07-29T17:15:42;1.70;;;1.30;;
49041;SDS011;34859;51.608;11.462;2022-07-29T17:18:26;2.45;;;1.10;;
49041;SDS011;34859;51.608;11.462;2022-07-29T17:21:10;1.58;;;1.48;;
49041;SDS011;34859;51.608;11.462;2022-07-29T17:23:54;2.70;;;1.43;;